Flight Track Log - Related Links

Times and Time Zones

All times are in EDT time to prevent confusion due to time zone crossing. See the DAL268 flight status page for this flight to view local times or setup timezone preferences in your user account.

Time Position Orientation Groundspeed Altitude Reporting Facility
EDT Latitude Longitude Course Direction KTS MPH feet Rate Location/Type
Sat 12:19:26 AM 40.6370 -73.7800 261° West  Level FlightAware
Sat 12:27:00 AM 40.9173 -73.5161 37° Northeast  Level FlightAware
Sat 12:28:00 AM 41.0336 -73.4147 30° Northeast  Level FlightAware
Sat 12:31:00 AM 40.9245 -73.5089 37° Northeast  Level FlightAware
Sat 12:32:00 AM 41.0414 -73.4087 30° Northeast  Level FlightAware
Sat 12:33:00 AM 41.1672 -73.3161 37° Northeast  Level FlightAware
Sat 12:34:00 AM 41.2874 -73.2106 48° Northeast  Level FlightAware
Sat 12:39:56 AM 40.6330 -73.7830 300° West 110 127  Level FlightAware
Sat 12:40:36 AM 40.6490 -73.8170 302° West 183 211 200 500 Climbing FlightAware
Sat 12:40:44 AM 40.6520 -73.8250 296° West 184 212 400 1,500 Climbing FlightAware
Sat 12:40:52 AM 40.6530 -73.8350 278° West 190 219 600 1,500 Climbing FlightAware
Sat 12:40:56 AM 40.6530 -73.8400 270° West 195 224 700 1,071 Climbing FlightAware
Sat 12:41:20 AM 40.6470 -73.8680 254° West 209 241 1,100 1,000 Climbing FlightAware
Sat 12:41:32 AM 40.6400 -73.8800 232° Southwest 217 250 1,300 900 Climbing FlightAware
Sat 12:41:40 AM 40.6340 -73.8850 212° Southwest 221 254 1,400 750 Climbing FlightAware
Sat 12:41:48 AM 40.6250 -73.8900 203° Southwest 226 260 1,500 1,000 Climbing FlightAware
Sat 12:41:52 AM 40.6210 -73.8910 191° South 227 261 1,600 1,200 Climbing FlightAware
Sat 12:41:58 AM 40.6150 -73.8910 180° South 229 264 1,700 923 Climbing FlightAware
Sat 12:42:18 AM 40.5960 -73.8840 164° South 227 261 2,000 800 Climbing FlightAware
Sat 12:42:28 AM 40.5880 -73.8770 146° Southeast 240 276 2,100 800 Climbing FlightAware
Sat 12:42:33 AM 40.5830 -73.8690 129° Southeast 244 281 2,200 900 Climbing FlightAware
Sat 12:42:48 AM 40.5750 -73.8540 125° Southeast 252 290 2,400 1,440 Climbing FlightAware
Sat 12:42:58 AM 40.5710 -73.8380 108° East 256 295 2,800 2,100 Climbing FlightAware
Sat 12:43:08 AM 40.5700 -73.8220 95° East 262 302 3,100 2,200 Climbing FlightAware
Sat 12:43:28 AM 40.5730 -73.7900 83° East 266 306 3,900 2,438 Climbing FlightAware
Sat 12:43:40 AM 40.5823 -73.7684 60° Northeast 275 316 4,400 2,444 Climbing FlightAware
Sat 12:43:55 AM 40.5932 -73.7458 58° Northeast 280 322 5,000 2,769 Climbing FlightAware
Sat 12:44:19 AM 40.6101 -73.7128 56° Northeast 281 323 6,200 2,667 Climbing FlightAware
Sat 12:44:40 AM 40.6249 -73.6820 58° Northeast 289 333 7,000 2,667 Climbing FlightAware
Sat 12:44:55 AM 40.6359 -73.6597 57° Northeast 289 333 7,800 3,000 Climbing FlightAware
Sat 12:45:02 AM 40.6413 -73.6497 55° Northeast 288 331 8,100 2,471 Climbing FlightAware
Sat 12:45:12 AM 40.6497 -73.6364 50° Northeast 291 335 8,500 2,250 Climbing FlightAware
Sat 12:45:18 AM 40.6560 -73.6290 42° Northeast 294 338 8,700 1,800 Climbing FlightAware
Sat 12:45:22 AM 40.6604 -73.6246 37° Northeast 295 339 8,800 1,714 Climbing FlightAware
Sat 12:45:25 AM 40.6639 -73.6214 35° Northeast 297 342 8,900 1,800 Climbing FlightAware
Sat 12:45:32 AM 40.6718 -73.6149 32° Northeast 299 344 9,100 2,462 Climbing FlightAware
Sat 12:46:04 AM 40.7126 -73.5897 25° Northeast 301 346 10,500 1,846 Climbing FlightAware
Sat 12:46:37 AM 40.7559 -73.5595 28° Northeast 330 380 11,100 1,385 Climbing FlightAware
Sat 12:47:22 AM 40.8200 -73.5170 27° Northeast 364 419 12,300 1,556 Climbing FlightAware
Sat 12:47:31 AM 40.8346 -73.5066 28° Northeast 373 429 12,500 1,579 Climbing FlightAware
Sat 12:48:00 AM 40.8821 -73.4761 26° Northeast 394 453 13,300 1,853 Climbing FlightAware
Sat 12:48:39 AM 40.9456 -73.4326 27° Northeast 405 466 14,600 2,149 Climbing FlightAware
Sat 12:49:07 AM 40.9922 -73.3974 30° Northeast 413 475 15,700 2,053 Climbing FlightAware
Sat 12:49:17 AM 41.0068 -73.3820 39° Northeast 418 481 15,900 1,688 Climbing FlightAware
Sat 12:49:39 AM 41.0380 -73.3424 44° Northeast 427 491 16,600 2,038 Climbing FlightAware
Sat 12:50:10 AM 41.0787 -73.2812 49° Northeast 433 498 17,700 1,770 Climbing FlightAware
Sat 12:50:40 AM 41.1199 -73.2206 48° Northeast 445 512 18,400 1,770 Climbing FlightAware
Sat 12:51:11 AM 41.1621 -73.1573 48° Northeast 448 516 19,500 1,967 Climbing FlightAware
Sat 12:51:41 AM 41.2041 -73.0956 48° Northeast 453 521 20,400 1,685 Climbing FlightAware
Sat 12:52:40 AM 41.2870 -72.9740 48° Northeast 462 532 22,000 1,648 Climbing FlightAware
Sat 12:53:12 AM 41.3340 -72.9040 48° Northeast 468 539 22,900 1,455 Climbing FlightAware
Sat 12:53:46 AM 41.3840 -72.8310 48° Northeast 477 549 23,600 1,273 Climbing FlightAware
Sat 12:54:18 AM 41.4320 -72.7600 48° Northeast 485 558 24,300 1,114 Climbing FlightAware
Sat 12:54:56 AM 41.4870 -72.6800 47° Northeast 495 570 24,900 1,000 Climbing FlightAware
Sat 12:55:42 AM 41.5610 -72.5710 48° Northeast 509 586 25,700 988 Climbing FlightAware
Sat 12:56:21 AM 41.6220 -72.4790 48° Northeast 520 598 26,300 1,040 Climbing FlightAware
Sat 12:56:57 AM 41.6830 -72.3900 47° Northeast 529 609 27,000 1,014 Climbing FlightAware
Sat 12:57:32 AM 41.7350 -72.3110 49° Northeast 535 616 27,500 600 Climbing FlightAware
Sat 12:58:07 AM 41.7850 -72.2390 47° Northeast 536 617 27,700 1,000 Climbing FlightAware
Sat 12:58:38 AM 41.8460 -72.1460 49° Northeast 548 631 28,600 1,521 Climbing FlightAware
Sat 12:59:18 AM 41.9190 -72.0370 48° Northeast 550 633 29,500 1,297 Climbing FlightAware
Sat 12:59:52 AM 41.9710 -71.9580 48° Northeast 543 625 30,200 1,297 Climbing FlightAware
Sat 01:00:32 AM 42.0410 -71.8510 49° Northeast 541 623 31,100 1,200 Climbing FlightAware
Sat 01:01:07 AM 42.1020 -71.7590 48° Northeast 543 625 31,700 1,029 Climbing FlightAware
Sat 01:01:42 AM 42.1590 -71.6720 49° Northeast 543 625 32,300 1,015 Climbing FlightAware
Sat 01:02:12 AM 42.2090 -71.5960 48° Northeast 543 625 32,800 646 Climbing FlightAware
Sat 01:02:47 AM 42.2690 -71.5050 48° Northeast 544 626 33,000 169 Climbing FlightAware
Sat 01:03:23 AM 42.3280 -71.4130 49° Northeast 542 624 33,000  Level FlightAware
Sat 01:03:57 AM 42.3850 -71.3260 48° Northeast 540 621 33,000  Level FlightAware
Sat 01:04:32 AM 42.4440 -71.2360 48° Northeast 543 625 33,000  Level FlightAware
Sat 01:05:17 AM 42.5150 -71.1260 49° Northeast 542 624 33,000  Level FlightAware
Sat 01:05:47 AM 42.5660 -71.0460 49° Northeast 542 624 33,000  Level FlightAware
Sat 01:06:27 AM 42.6330 -70.9410 49° Northeast 541 623 33,000  Level FlightAware
Sat 01:07:02 AM 42.6890 -70.8540 49° Northeast 541 623 33,000  Level FlightAware
Sat 01:07:32 AM 42.7390 -70.7740 50° Northeast 542 624 33,000  Level FlightAware
Sat 01:08:12 AM 42.8060 -70.6710 48° Northeast 542 624 33,000  Level FlightAware
Sat 01:08:47 AM 42.8590 -70.5860 50° Northeast 542 624 33,000  Level FlightAware
Sat 01:09:17 AM 42.9100 -70.5050 49° Northeast 542 624 33,000  Level FlightAware
Sat 01:09:52 AM 42.9650 -70.4170 49° Northeast 542 624 33,000  Level FlightAware
Sat 01:10:32 AM 43.0290 -70.3150 49° Northeast 541 623 33,000  Level FlightAware
Sat 01:11:07 AM 43.0890 -70.2220 49° Northeast 542 624 33,000  Level FlightAware
Sat 01:11:40 AM 43.1450 -70.1300 50° Northeast 542 624 33,000  Level FlightAware
Sat 01:12:16 AM 43.2040 -70.0360 49° Northeast 542 624 33,000  Level FlightAware
Sat 01:12:50 AM 43.2570 -69.9500 50° Northeast 543 625 33,000  Level FlightAware
Sat 01:13:24 AM 43.3150 -69.8550 50° Northeast 543 625 33,000  Level FlightAware
Sat 01:13:59 AM 43.3700 -69.7650 50° Northeast 544 626 33,000  Level FlightAware
Sat 01:14:32 AM 43.4230 -69.6780 50° Northeast 545 627 33,000  Level FlightAware
Sat 01:15:12 AM 43.4860 -69.5770 49° Northeast 547 629 33,000  Level FlightAware
Sat 01:15:47 AM 43.5390 -69.4890 50° Northeast 547 629 33,000  Level FlightAware
Sat 01:16:33 AM 43.6110 -69.3710 50° Northeast 547 629 33,000  Level FlightAware
Sat 01:17:32 AM 43.7170 -69.1970 50° Northeast 543 625 33,000  Level FlightAware
Sat 01:18:05 AM 43.7580 -69.1270 51° Northeast 543 625 33,000  Level FlightAware
Sat 01:18:41 AM 43.8060 -69.0440 51° Northeast 543 625 33,000  Level FlightAware
Sat 01:19:17 AM 43.8550 -68.9610 51° Northeast 543 625 33,000  Level FlightAware
Sat 01:19:53 AM 43.9030 -68.8780 51° Northeast 543 625 33,000  Level FlightAware
Sat 01:20:25 AM 43.9960 -68.7290 49° Northeast 549 632 33,000  Level FlightAware
Sat 01:20:54 AM 44.0440 -68.6470 51° Northeast 550 633 33,000  Level FlightAware
Sat 01:21:37 AM 44.1130 -68.5320 50° Northeast 551 634 33,000  Level FlightAware
Sat 01:22:12 AM 44.1700 -68.4360 50° Northeast 552 635 33,000  Level FlightAware
Sat 01:22:42 AM 44.2180 -68.3500 52° Northeast 553 636 33,000  Level FlightAware
Sat 01:23:22 AM 44.2810 -68.2450 50° Northeast 556 640 33,000  Level FlightAware
Sat 01:23:58 AM 44.3410 -68.1420 51° Northeast 558 642 33,000  Level FlightAware
Sat 01:24:29 AM 44.3930 -68.0520 51° Northeast 558 642 33,000  Level FlightAware
Sat 01:25:06 AM 44.4520 -67.9510 51° Northeast 559 643 33,000  Level FlightAware
Sat 01:25:41 AM 44.5100 -67.8490 51° Northeast 560 644 33,000  Level FlightAware
Sat 01:26:18 AM 44.5690 -67.7450 51° Northeast 561 646 33,000  Level FlightAware
Sat 01:26:49 AM 44.6210 -67.6560 51° Northeast 562 647 33,000  Level FlightAware
Sat 01:27:26 AM 44.6800 -67.5510 52° Northeast 563 648 33,000  Level FlightAware
Sat 01:28:02 AM 44.7380 -67.4510 51° Northeast 564 649 33,000  Level FlightAware
Sat 01:28:34 AM 44.7870 -67.3620 52° Northeast 564 649 33,000  Level FlightAware
Sat 01:29:09 AM 44.8460 -67.2580 51° Northeast 565 650 33,000  Level FlightAware
Sat 01:29:45 AM 44.9050 -67.1590 50° Northeast 560 644 33,000  Level FlightAware
Sat 01:30:19 AM 44.9670 -67.0660 47° Northeast 566 651 33,000  Level FlightAware
Sat 01:30:55 AM 45.0330 -66.9740 45° Northeast 567 652 33,000  Level FlightAware
Sat 01:31:29 AM 45.0980 -66.8830 45° Northeast 567 652 33,000  Level FlightAware
Sat 01:32:05 AM 45.1640 -66.7910 44° Northeast 568 654 33,000  Level FlightAware
Sat 01:32:39 AM 45.2280 -66.6990 45° Northeast 569 655 33,000  Level FlightAware
Sat 01:33:15 AM 45.2940 -66.6070 44° Northeast 569 655 33,000  Level FlightAware
Sat 01:33:49 AM 45.3580 -66.5160 45° Northeast 571 657 33,000  Level FlightAware
Sat 01:34:25 AM 45.4220 -66.4230 46° Northeast 572 658 33,000  Level FlightAware
Sat 01:34:54 AM 45.4790 -66.3430 45° Northeast 573 659 33,000  Level FlightAware
Sat 01:35:06 AM 45.4930 -66.3210 48° Northeast 573 659 33,000  Level FlightAware
Sat 01:35:40 AM 45.5610 -66.2250 45° Northeast 574 661 33,000  Level FlightAware
Sat 01:36:14 AM 45.6280 -66.1250 46° Northeast 574 661 33,000  Level FlightAware
Sat 01:36:50 AM 45.6940 -66.0300 45° Northeast 574 661 33,000  Level FlightAware
Sat 01:37:24 AM 45.7590 -65.9350 46° Northeast 575 662 33,000  Level FlightAware
Sat 01:38:00 AM 45.8240 -65.8400 46° Northeast 575 662 33,000  Level FlightAware
Sat 01:38:38 AM 45.8860 -65.7520 45° Northeast 575 662 33,000  Level FlightAware
Sat 01:39:22 AM 45.9700 -65.6180 48° Northeast 576 663 33,000  Level FlightAware
Sat 01:39:58 AM 46.0240 -65.5290 49° Northeast 576 663 33,000  Level FlightAware
Sat 01:40:32 AM 45.9590 -65.6430 231° Southwest 577 664 33,000  Level FlightAware
Sat 01:41:10 AM 45.9040 -65.7390 231° Southwest 577 664 33,000  Level FlightAware
Sat 01:41:46 AM 45.8530 -65.8310 232° Southwest 577 664 33,000  Level FlightAware
Sat 01:42:22 AM 45.8020 -65.9220 231° Southwest 577 664 33,000  Level FlightAware
Sat 01:42:58 AM 45.7500 -66.0130 231° Southwest 577 664 33,000  Level FlightAware
Sat 01:43:36 AM 45.6960 -66.1090 231° Southwest 577 664 33,000  Level FlightAware
Sat 01:44:12 AM 45.6440 -66.1990 230° Southwest 577 664 33,000  Level FlightAware
Sat 01:44:48 AM 45.5930 -66.2900 231° Southwest 577 664 33,000  Level FlightAware
Sat 01:45:24 AM 45.5420 -66.3810 231° Southwest 577 664 33,000  Level FlightAware
Sat 01:46:00 AM 45.4900 -66.4710 231° Southwest 577 664 33,000  Level FlightAware
Sat 01:46:36 AM 45.4390 -66.5620 231° Southwest 577 664 33,000  Level FlightAware
Sat 01:47:12 AM 45.3870 -66.6520 231° Southwest 577 664 33,000  Level FlightAware
Sat 01:47:49 AM 45.3340 -66.7450 231° Southwest 577 664 33,000  Level FlightAware
Sat 01:48:25 AM 45.2830 -66.8350 231° Southwest 577 664 33,000  Level FlightAware
Sat 01:49:01 AM 45.2320 -66.9260 232° Southwest 577 664 33,000  Level FlightAware
Sat 01:49:38 AM 45.1790 -67.0180 231° Southwest 577 664 33,000  Level FlightAware
Sat 01:50:15 AM 45.1260 -67.1110 231° Southwest 577 664 33,000  Level FlightAware
Sat 01:50:52 AM 47.2500 -63.6500 231° Southwest 590 679 33,000  Level Moncton Center
Sat 01:51:52 AM 47.3667 -63.4500 49° Northeast 590 679 33,000  Level Moncton Center
Sat 01:52:52 AM 47.4667 -63.2833 48° Northeast 590 679 33,000  Level Moncton Center
Sat 01:53:52 AM 47.5833 -63.1000 47° Northeast 590 679 33,000  Level Moncton Center
Sat 01:54:52 AM 47.6833 -62.9333 48° Northeast 590 679 33,000  Level Moncton Center
Sat 01:55:52 AM 47.8000 -62.7333 49° Northeast 590 679 33,000  Level Moncton Center
Sat 01:56:52 AM 47.9000 -62.5500 51° Northeast 600 690 33,000  Level Moncton Center
Sat 01:57:52 AM 48.0167 -62.3667 46° Northeast 590 679 33,000  Level Moncton Center
Sat 01:58:52 AM 48.1333 -62.1833 46° Northeast 600 690 33,000  Level Moncton Center
Sat 01:59:52 AM 48.2500 -62.0167 44° Northeast 600 690 33,000  Level Moncton Center
Sat 02:00:52 AM 48.3333 -61.8333 56° Northeast 600 690 33,000  Level Moncton Center
Sat 02:01:52 AM 48.4500 -61.6167 51° Northeast 600 690 33,000  Level Moncton Center
Sat 02:02:52 AM 48.5667 -61.4333 46° Northeast 600 690 33,000  Level Moncton Center
Sat 02:03:52 AM 48.6833 -61.2333 48° Northeast 600 690 33,000  Level Moncton Center
Sat 02:04:52 AM 48.7833 -61.0500 50° Northeast 600 690 33,000  Level Moncton Center
Sat 02:11:11 AM 49.4890 -59.8430 50° Northeast 605 696 33,000  Level FlightAware
Sat 02:11:40 AM 49.5420 -59.7470 50° Northeast 606 697 33,000  Level FlightAware
Sat 02:12:20 AM 49.6030 -59.6340 50° Northeast 606 697 33,000  Level FlightAware
Sat 02:12:56 AM 49.6580 -59.5330 50° Northeast 606 697 33,000  Level FlightAware
Sat 02:13:48 AM 49.7610 -59.3390 51° Northeast 606 697 33,000  Level FlightAware
Sat 02:14:24 AM 49.8160 -59.2370 50° Northeast 606 697 33,000  Level FlightAware
Sat 02:15:00 AM 49.8720 -59.1350 50° Northeast 606 697 33,000  Level FlightAware
Sat 02:16:34 AM 50.0620 -58.7500 52° Northeast 33,000  Level FlightAware
Sat 02:17:04 AM 50.1110 -58.6330 57° Northeast 607 699 33,000  Level FlightAware
Sat 02:17:40 AM 50.1560 -58.5180 59° Northeast 607 699 33,000  Level FlightAware
Sat 02:18:18 AM 50.2100 -58.3790 59° Northeast 608 700 33,000  Level FlightAware
Sat 02:18:55 AM 50.2680 -58.2290 59° Northeast 607 699 33,000  Level FlightAware
Sat 02:19:20 AM 50.3050 -58.1320 59° Northeast 606 697 33,000 100 Level FlightAware
Sat 02:19:55 AM 50.3560 -58.0000 59° Northeast 609 701 33,100 640 Climbing FlightAware
Sat 02:20:35 AM 50.4110 -57.8550 59° Northeast 609 701 33,800 1,271 Climbing FlightAware
Sat 02:21:20 AM 50.4790 -57.6740 59° Northeast 600 690 34,900 786 Climbing FlightAware
Sat 02:21:59 AM 50.5260 -57.5500 59° Northeast 600 690 34,900 65 Level FlightAware
Sat 02:22:52 AM 50.6010 -57.3450 60° Northeast 600 690 35,000 67 Climbing FlightAware
Sat 02:23:28 AM 50.6450 -57.2300 59° Northeast 600 690 35,000  Level FlightAware
Sat 02:24:00 AM 50.6890 -57.1040 61° Northeast 593 682 35,000  Level FlightAware
Sat 02:24:36 AM 50.7310 -56.9890 60° Northeast 593 682 35,000  Level FlightAware
Sat 02:25:12 AM 50.7720 -56.8740 61° Northeast 593 682 35,000  Level FlightAware
Sat 02:25:48 AM 50.8140 -56.7590 60° Northeast 593 682 35,000  Level FlightAware
Sat 02:26:24 AM 50.8560 -56.6440 60° Northeast 593 682 35,000  Level FlightAware
Sat 02:27:10 AM 50.9333 -56.3500 60° Northeast 590 679 35,000  Level Gander Center
Sat 02:27:52 AM 51.0000 -56.1667 60° Northeast 590 679 35,000  Level Moncton Center
Sat 02:28:52 AM 51.0833 -55.9333 60° Northeast 590 679 35,000  Level Moncton Center
Sat 02:29:52 AM 51.1667 -55.7167 58° Northeast 590 679 35,000  Level Moncton Center
Sat 02:30:52 AM 51.2333 -55.4833 65° Northeast 590 679 35,000  Level Moncton Center
Sat 02:31:52 AM 51.3167 -55.2833 56° Northeast 590 679 35,000  Level Moncton Center
Sat 02:33:04 AM 51.4167 -54.9833 62° Northeast 590 679 35,000  Level Gander Center
Sat 02:34:04 AM 51.5000 -54.7500 60° Northeast 590 679 35,000  Level Gander Center
Sat 02:35:04 AM 51.5833 -54.5000 62° Northeast 590 679 35,000  Level Gander Center
Sat 02:36:04 AM 51.6500 -54.3000 62° Northeast 590 679 35,000  Level Gander Center
Sat 02:37:04 AM 51.7333 -54.0333 63° Northeast 590 679 35,000  Level Gander Center
Sat 02:38:04 AM 51.8000 -53.8167 63° Northeast 590 679 35,000  Level Gander Center
Sat 02:39:04 AM 51.8833 -53.6000 58° Northeast 580 667 35,000  Level Gander Center
Sat 02:40:04 AM 51.9667 -53.3500 62° Northeast 590 679 35,000  Level Gander Center
Sat 02:41:04 AM 52.0333 -53.1500 61° Northeast 570 656 35,000  Level Gander Center
Sat 02:42:04 AM 52.1167 -52.8833 63° Northeast 580 667 35,000  Level Gander Center
Sat 02:43:04 AM 52.1833 -52.6500 65° Northeast 580 667 35,000  Level Gander Center
Sat 02:44:04 AM 52.2667 -52.3833 63° Northeast 570 656 35,000  Level Gander Center
Sat 02:45:04 AM 52.3333 -52.1833 61° Northeast 590 679 35,000  Level Gander Center
Sat 02:46:04 AM 52.4167 -51.9500 60° Northeast 580 667 35,000  Level Gander Center
Sat 02:47:04 AM 52.4667 -51.7167 71° East 590 679 35,000  Level Gander Center
Sat 02:48:04 AM 52.5500 -51.4667 61° Northeast 590 679 35,000  Level Gander Center
Sat 02:49:04 AM 52.6000 -51.2333 70° East 580 667 35,000  Level Gander Center
Sat 02:50:04 AM 52.6833 -50.9667 63° Northeast 580 667 35,000  Level Gander Center
Sat 02:52:00 AM 52.8198 -50.5549 61° Northeast  Level FlightAware
Sat 02:53:55 AM 52.9333 -50.0667 68° East 280 322 35,000  Level Gander Center
Sat 02:54:30 AM 52.9833 -49.9167 61° Northeast 410 472 35,000  Level Gander Center
Sat 02:56:00 AM 53.0484 -49.6741 65° Northeast  Level FlightAware
Sat 02:59:00 AM 53.2386 -48.9938 68° East  Level FlightAware
Sat 03:03:00 AM 53.4443 -48.1216 68° East  Level FlightAware
Sat 03:04:00 AM 53.4967 -47.8958 69° East  Level FlightAware
Sat 03:05:00 AM 53.5488 -47.6694 69° East  Level FlightAware
Sat 03:06:00 AM 53.6004 -47.4425 69° East  Level FlightAware
Sat 03:07:00 AM 53.6515 -47.2150 69° East  Level FlightAware
Sat 03:08:00 AM 53.7023 -46.9870 69° East  Level FlightAware
Sat 03:09:00 AM 53.7526 -46.7585 70° East  Level FlightAware
Sat 03:10:00 AM 53.8024 -46.5294 70° East  Level FlightAware
Sat 03:11:00 AM 53.8518 -46.2997 70° East  Level FlightAware
Sat 03:12:00 AM 53.9008 -46.0695 70° East  Level FlightAware
Sat 03:13:00 AM 53.9494 -45.8387 70° East  Level FlightAware
Sat 03:14:00 AM 53.9975 -45.6075 70° East  Level FlightAware
Sat 03:15:00 AM 54.0452 -45.3757 71° East  Level FlightAware
Sat 03:16:00 AM 54.0924 -45.1433 71° East  Level FlightAware
Sat 03:17:00 AM 54.1391 -44.9105 71° East  Level FlightAware
Sat 03:18:00 AM 54.1854 -44.6771 71° East  Level FlightAware
Sat 03:19:00 AM 54.2313 -44.4432 71° East  Level FlightAware
Sat 03:20:00 AM 54.2767 -44.2088 72° East  Level FlightAware
Sat 03:21:00 AM 54.3217 -43.9739 72° East  Level FlightAware
Sat 03:22:00 AM 54.3661 -43.7384 72° East  Level FlightAware
Sat 03:23:00 AM 54.4102 -43.5024 72° East  Level FlightAware
Sat 03:24:00 AM 54.4537 -43.2660 72° East  Level FlightAware
Sat 03:25:00 AM 54.4968 -43.0290 73° East  Level FlightAware
Sat 03:26:00 AM 54.5395 -42.7916 73° East  Level FlightAware
Sat 03:27:00 AM 54.5817 -42.5536 73° East  Level FlightAware
Sat 03:28:00 AM 54.6234 -42.3152 73° East  Level FlightAware
Sat 03:29:00 AM 54.6646 -42.0762 73° East  Level FlightAware
Sat 03:30:00 AM 54.7054 -41.8368 73° East  Level FlightAware
Sat 03:31:00 AM 54.7457 -41.5969 74° East  Level FlightAware
Sat 03:32:00 AM 54.7855 -41.3566 74° East  Level FlightAware
Sat 03:33:00 AM 54.8249 -41.1157 74° East  Level FlightAware
Sat 03:34:00 AM 54.8638 -40.8744 74° East  Level FlightAware
Sat 03:35:00 AM 54.9021 -40.6326 74° East  Level FlightAware
Sat 03:36:00 AM 54.9400 -40.3904 75° East  Level FlightAware
Sat 03:37:00 AM 54.9781 -40.1435 75° East  Level FlightAware
Sat 03:38:00 AM 55.0044 -39.8928 86° East  Level FlightAware
Sat 03:39:00 AM 55.0144 -39.6374 86° East  Level FlightAware
Sat 03:40:00 AM 55.0238 -39.3819 86° East  Level FlightAware
Sat 03:41:00 AM 55.0328 -39.1263 86° East  Level FlightAware
Sat 03:42:00 AM 55.0412 -38.8705 87° East  Level FlightAware
Sat 03:43:00 AM 55.0490 -38.6147 87° East  Level FlightAware
Sat 03:44:00 AM 55.0563 -38.3587 87° East  Level FlightAware
Sat 03:45:00 AM 55.0631 -38.1027 87° East  Level FlightAware
Sat 03:46:00 AM 55.0694 -37.8466 87° East  Level FlightAware
Sat 03:47:00 AM 55.0751 -37.5904 88° East  Level FlightAware
Sat 03:48:00 AM 55.0803 -37.3341 88° East  Level FlightAware
Sat 03:49:00 AM 55.0849 -37.0778 88° East  Level FlightAware
Sat 03:50:00 AM 55.0890 -36.8214 88° East  Level FlightAware
Sat 03:51:00 AM 55.0925 -36.5649 89° East  Level FlightAware
Sat 03:52:00 AM 55.0956 -36.3084 89° East  Level FlightAware
Sat 03:53:00 AM 55.0980 -36.0519 89° East  Level FlightAware
Sat 03:54:00 AM 55.1000 -35.7954 89° East  Level FlightAware
Sat 03:55:00 AM 55.1014 -35.5388 89° East  Level FlightAware
Sat 03:56:00 AM 55.1022 -35.2822 90° East  Level FlightAware
Sat 03:57:00 AM 55.1026 -35.0257 90° East  Level FlightAware
Sat 03:58:00 AM 55.1023 -34.7691 90° East  Level FlightAware
Sat 03:59:00 AM 55.1016 -34.5125 90° East  Level FlightAware
Sat 04:00:00 AM 55.1003 -34.2559 90° East  Level FlightAware
Sat 04:01:00 AM 55.0985 -33.9994 91° East  Level FlightAware
Sat 04:02:00 AM 55.0961 -33.7428 91° East  Level FlightAware
Sat 04:03:00 AM 55.0932 -33.4864 91° East  Level FlightAware
Sat 04:04:00 AM 55.0897 -33.2299 91° East  Level FlightAware
Sat 04:05:00 AM 55.0858 -32.9735 91° East  Level FlightAware
Sat 04:06:00 AM 55.0812 -32.7172 92° East  Level FlightAware
Sat 04:07:00 AM 55.0762 -32.4609 92° East  Level FlightAware
Sat 04:08:00 AM 55.0706 -32.2047 92° East  Level FlightAware
Sat 04:09:00 AM 55.0644 -31.9485 92° East  Level FlightAware
Sat 04:10:00 AM 55.0577 -31.6924 93° East  Level FlightAware
Sat 04:11:00 AM 55.0505 -31.4365 93° East  Level FlightAware
Sat 04:12:00 AM 55.0428 -31.1806 93° East  Level FlightAware
Sat 04:13:00 AM 55.0345 -30.9248 93° East  Level FlightAware
Sat 04:14:00 AM 55.0257 -30.6692 93° East  Level FlightAware
Sat 04:15:00 AM 55.0163 -30.4141 94° East  Level FlightAware
Sat 04:16:00 AM 55.0064 -30.1591 94° East  Level FlightAware
Sat 04:17:00 AM 54.9945 -29.9045 96° East  Level FlightAware
Sat 04:18:00 AM 54.9796 -29.6504 96° East  Level FlightAware
Sat 04:19:00 AM 54.9641 -29.3965 96° East  Level FlightAware
Sat 04:20:00 AM 54.9481 -29.1429 96° East  Level FlightAware
Sat 04:21:00 AM 54.9316 -28.8894 96° East  Level FlightAware
Sat 04:22:00 AM 54.9145 -28.6361 97° East  Level FlightAware
Sat 04:23:00 AM 54.8969 -28.3831 97° East  Level FlightAware
Sat 04:24:00 AM 54.8788 -28.1302 97° East  Level FlightAware
Sat 04:25:00 AM 54.8602 -27.8776 97° East  Level FlightAware
Sat 04:26:00 AM 54.8410 -27.6253 97° East  Level FlightAware
Sat 04:27:00 AM 54.8213 -27.3732 98° East  Level FlightAware
Sat 04:28:00 AM 54.8011 -27.1213 98° East  Level FlightAware
Sat 04:29:00 AM 54.7804 -26.8697 98° East  Level FlightAware
Sat 04:30:00 AM 54.7592 -26.6184 98° East  Level FlightAware
Sat 04:31:00 AM 54.7374 -26.3673 98° East  Level FlightAware
Sat 04:32:00 AM 54.7151 -26.1165 99° East  Level FlightAware
Sat 04:33:00 AM 54.6923 -25.8659 99° East  Level FlightAware
Sat 04:34:00 AM 54.6690 -25.6157 99° East  Level FlightAware
Sat 04:35:00 AM 54.6452 -25.3657 99° East  Level FlightAware
Sat 04:36:00 AM 54.6208 -25.1161 99° East  Level FlightAware
Sat 04:37:00 AM 54.5960 -24.8667 100° East  Level FlightAware
Sat 04:38:00 AM 54.5706 -24.6177 100° East  Level FlightAware
Sat 04:39:00 AM 54.5447 -24.3689 100° East  Level FlightAware
Sat 04:40:00 AM 54.5183 -24.1205 100° East  Level FlightAware
Sat 04:41:00 AM 54.4914 -23.8724 100° East  Level FlightAware
Sat 04:42:00 AM 54.4640 -23.6247 101° East  Level FlightAware
Sat 04:43:00 AM 54.4361 -23.3772 101° East  Level FlightAware
Sat 04:44:00 AM 54.4077 -23.1301 101° East  Level FlightAware
Sat 04:45:00 AM 54.3788 -22.8834 101° East  Level FlightAware
Sat 04:46:00 AM 54.3494 -22.6370 101° East  Level FlightAware
Sat 04:47:00 AM 54.3194 -22.3910 102° East  Level FlightAware
Sat 04:48:00 AM 54.2890 -22.1453 102° East  Level FlightAware
Sat 04:49:00 AM 54.2581 -21.9000 102° East  Level FlightAware
Sat 04:50:00 AM 54.2267 -21.6551 102° East  Level FlightAware
Sat 04:51:00 AM 54.1948 -21.4105 102° East  Level FlightAware
Sat 04:52:00 AM 54.1623 -21.1663 103° East  Level FlightAware
Sat 04:53:00 AM 54.1295 -20.9225 103° East  Level FlightAware
Sat 04:54:00 AM 54.0961 -20.6791 103° East  Level FlightAware
Sat 04:55:00 AM 54.0622 -20.4361 103° East  Level FlightAware
Sat 04:56:00 AM 54.0278 -20.1934 103° East  Level FlightAware
Sat 04:57:00 AM 53.9971 -19.9500 96° East  Level FlightAware
Sat 04:58:00 AM 53.9822 -19.7020 96° East  Level FlightAware
Sat 04:59:00 AM 53.9668 -19.4543 96° East  Level FlightAware
Sat 05:00:00 AM 53.9509 -19.2067 96° East  Level FlightAware
Sat 05:01:00 AM 53.9344 -18.9593 96° East  Level FlightAware
Sat 05:02:00 AM 53.9175 -18.7121 97° East  Level FlightAware
Sat 05:03:00 AM 53.9001 -18.4651 97° East  Level FlightAware
Sat 05:04:00 AM 53.8821 -18.2183 97° East  Level FlightAware
Sat 05:05:00 AM 53.8637 -17.9717 97° East  Level FlightAware
Sat 05:06:00 AM 53.8447 -17.7253 97° East  Level FlightAware
Sat 05:07:00 AM 53.8253 -17.4792 98° East  Level FlightAware
Sat 05:08:00 AM 53.8053 -17.2333 98° East  Level FlightAware
Sat 05:09:00 AM 53.7849 -16.9876 98° East  Level FlightAware
Sat 05:10:00 AM 53.7639 -16.7422 98° East  Level FlightAware
Sat 05:11:00 AM 53.7425 -16.4970 98° East  Level FlightAware
Sat 05:12:00 AM 53.7205 -16.2521 99° East  Level FlightAware
Sat 05:13:00 AM 53.6981 -16.0079 99° East  Level FlightAware
Sat 05:14:00 AM 53.6752 -15.7639 99° East  Level FlightAware
Sat 05:15:00 AM 53.6517 -15.5202 99° East  Level FlightAware
Sat 05:15:10 AM 53.9190 -14.2240 99° East 576 663 35,000  Level FlightAware
Sat 05:15:53 AM 53.8950 -14.0650 104° East 576 663 35,000  Level FlightAware
Sat 05:16:00 AM 53.6278 -15.2768 99° East  Level FlightAware
Sat 05:16:25 AM 53.8680 -13.9140 107° East 577 664 35,000  Level FlightAware
Sat 05:17:05 AM 53.8360 -13.7220 106° East 577 664 35,000  Level FlightAware
Sat 05:17:35 AM 53.8150 -13.6010 106° East 581 669 35,000  Level FlightAware
Sat 05:18:15 AM 53.7850 -13.4220 106° East 581 669 35,000  Level FlightAware
Sat 05:18:45 AM 53.7650 -13.3040 106° East 582 670 35,000  Level FlightAware
Sat 05:19:25 AM 53.7340 -13.1250 106° East 583 671 35,000  Level FlightAware
Sat 05:20:00 AM 53.7050 -12.9600 106° East 583 671 35,000  Level FlightAware
Sat 05:20:35 AM 53.6790 -12.8120 106° East 584 672 35,000  Level FlightAware
Sat 05:21:06 AM 53.6560 -12.6810 106° East 582 670 35,000  Level FlightAware
Sat 05:21:41 AM 53.6290 -12.5290 107° East 582 670 35,000  Level FlightAware
Sat 05:22:31 AM 53.5880 -12.3030 107° East 582 670 35,000  Level FlightAware
Sat 05:23:06 AM 53.5610 -12.1510 107° East 581 669 35,000  Level FlightAware
Sat 05:23:41 AM 53.5330 -12.0040 108° East 581 669 35,000  Level FlightAware
Sat 05:24:17 AM 53.5040 -11.8490 107° East 581 669 35,000  Level FlightAware
Sat 05:24:52 AM 53.4760 -11.6930 107° East 581 669 35,000  Level FlightAware
Sat 05:25:37 AM 53.4390 -11.5010 108° East 580 667 35,000  Level FlightAware
Sat 05:26:07 AM 53.4140 -11.3720 108° East 579 666 35,000  Level FlightAware
Sat 05:26:47 AM 53.3820 -11.2020 107° East 578 665 35,000  Level FlightAware
Sat 05:27:22 AM 53.3530 -11.0530 108° East 579 666 35,000  Level FlightAware
Sat 05:27:52 AM 53.3290 -10.9300 108° East 578 665 35,000  Level FlightAware
Sat 05:28:27 AM 53.2990 -10.7770 108° East 576 663 35,000  Level FlightAware
Sat 05:29:07 AM 53.2660 -10.6090 108° East 576 663 35,000  Level FlightAware
Sat 05:29:37 AM 53.2410 -10.4820 108° East 574 661 35,000  Level FlightAware
Sat 05:30:12 AM 53.2120 -10.3360 108° East 572 658 35,000  Level FlightAware
Sat 05:30:47 AM 53.1820 -10.1900 109° East 570 656 35,000  Level FlightAware
Sat 05:31:27 AM 53.1480 -10.0240 109° East 565 650 35,000  Level FlightAware
Sat 05:32:02 AM 53.1180 -9.8800 109° East 566 651 35,000  Level FlightAware
Sat 05:32:32 AM 53.0930 -9.7600 109° East 565 650 35,000  Level FlightAware
Sat 05:33:07 AM 53.0630 -9.6120 109° East 565 650 35,000  Level FlightAware
Sat 05:33:47 AM 53.0280 -9.4520 110° East 566 651 35,000  Level FlightAware
Sat 05:34:22 AM 52.9980 -9.3070 109° East 566 651 35,000  Level FlightAware
Sat 05:34:52 AM 52.9720 -9.1840 109° East 566 651 35,000  Level FlightAware
Sat 05:35:27 AM 52.9400 -9.0370 110° East 566 651 35,000  Level FlightAware
Sat 05:36:07 AM 52.9060 -8.8770 109° East 568 654 35,000  Level FlightAware
Sat 05:36:37 AM 52.8790 -8.7550 110° East 567 652 35,000  Level FlightAware
Sat 05:37:13 AM 52.8470 -8.6040 110° East 566 651 35,000  Level FlightAware
Sat 05:37:14 AM 52.8446 -8.5925 110° East 488 562 35,000  Level FlightAware
Sat 05:37:44 AM 52.8176 -8.4710 110° East 486 559 35,000  Level FlightAware
Sat 05:37:48 AM 52.8150 -8.4620 110° East 565 650 35,000  Level FlightAware
Sat 05:38:28 AM 52.7800 -8.3000 110° East 564 649 35,000  Level FlightAware
Sat 05:38:58 AM 52.7530 -8.1840 111° Southeast 564 649 35,000  Level FlightAware
Sat 05:39:34 AM 52.7200 -8.0380 110° East 565 650 35,000  Level FlightAware
Sat 05:40:08 AM 52.6890 -7.8970 110° East 565 650 35,000  Level FlightAware
Sat 05:40:44 AM 52.6542 -7.7441 110° East 488 562 35,000  Level FlightAware
Sat 05:40:48 AM 52.6520 -7.7360 110° East 563 648 35,000  Level FlightAware
Sat 05:41:25 AM 52.6190 -7.5920 111° Southeast 565 650 35,000  Level FlightAware
Sat 05:42:04 AM 52.5810 -7.4310 111° Southeast 566 651 35,000  Level FlightAware
Sat 05:42:38 AM 52.5490 -7.2910 111° Southeast 566 651 35,000  Level FlightAware
Sat 05:43:14 AM 52.5150 -7.1470 111° Southeast 567 652 35,000  Level FlightAware
Sat 05:43:15 AM 52.5144 -7.1411 111° Southeast 488 562 35,000 1,161 Level FlightAware
Sat 05:43:45 AM 52.4862 -7.0208 111° Southeast 492 566 35,600 1,200 Climbing FlightAware
Sat 05:43:50 AM 52.4820 -7.0060 111° Southeast 568 654 35,700 1,579 Climbing FlightAware
Sat 05:44:23 AM 52.4500 -6.8740 112° Southeast 562 647 36,600 1,040 Climbing FlightAware
Sat 05:45:05 AM 52.4120 -6.7140 111° Southeast 554 638 37,000 329 Climbing FlightAware
Sat 05:45:36 AM 52.3820 -6.5890 111° Southeast 552 635 37,000  Level FlightAware
Sat 05:46:14 AM 52.3470 -6.4430 111° Southeast 547 629 37,000  Level FlightAware
Sat 05:46:49 AM 52.3130 -6.3050 112° Southeast 543 625 37,000  Level FlightAware
Sat 05:47:25 AM 52.2800 -6.1690 112° Southeast 542 624 37,000  Level FlightAware
Sat 05:47:57 AM 52.2500 -6.0480 112° Southeast 537 618 37,000  Level FlightAware
Sat 05:48:33 AM 52.2166 -5.9116 112° Southeast 500 575 37,000  Level FlightAware
Sat 05:48:36 AM 52.2150 -5.9060 112° Southeast 533 613 37,000  Level FlightAware
Sat 05:49:09 AM 52.1830 -5.7810 113° Southeast 530 610 37,000  Level FlightAware
Sat 05:49:45 AM 52.1510 -5.6470 111° Southeast 529 609 37,000  Level FlightAware
Sat 05:50:18 AM 52.1340 -5.5280 103° East 525 604 37,000  Level FlightAware
Sat 05:50:53 AM 52.1180 -5.3890 101° East 523 602 37,000  Level FlightAware
Sat 05:51:28 AM 52.1000 -5.2550 102° East 521 600 37,000  Level FlightAware
Sat 05:52:03 AM 52.0830 -5.1210 102° East 521 600 37,000  Level FlightAware
Sat 05:52:38 AM 52.0660 -4.9870 102° East 521 600 37,000  Level FlightAware
Sat 05:53:13 AM 52.0480 -4.8530 102° East 521 600 37,000  Level FlightAware
Sat 05:53:43 AM 52.0320 -4.7350 102° East 521 600 37,000  Level FlightAware
Sat 05:53:51 AM 52.0271 -4.7019 102° East 492 566 37,000  Level FlightAware
Sat 05:54:21 AM 52.0111 -4.5875 102° East 496 571 37,000  Level FlightAware
Sat 05:54:23 AM 52.0110 -4.5900 102° East 523 602 37,000  Level FlightAware
Sat 05:54:35 AM 52.0036 -4.5366 103° East 523 602 37,000  Level FlightAware
Sat 05:55:14 AM 51.9828 -4.3880 103° East 521 600 37,000  Level FlightAware
Sat 05:55:51 AM 51.9624 -4.2474 103° East 519 597 37,000  Level FlightAware
Sat 05:56:32 AM 51.9405 -4.0927 103° East 517 595 37,000  Level FlightAware
Sat 05:57:09 AM 51.9205 -3.9494 103° East 502 578 37,000  Level FlightAware
Sat 05:57:18 AM 51.9170 -3.9270 103° East 515 593 37,000  Level FlightAware
Sat 05:57:54 AM 51.8970 -3.7890 103° East 513 590 37,000  Level FlightAware
Sat 05:58:29 AM 51.8790 -3.6620 103° East 514 592 37,000  Level FlightAware
Sat 05:59:04 AM 51.8590 -3.5320 104° East 514 592 37,000  Level FlightAware
Sat 05:59:39 AM 51.8400 -3.4050 104° East 512 589 37,000  Level FlightAware
Sat 06:00:14 AM 51.8210 -3.2750 103° East 512 589 37,000  Level FlightAware
Sat 06:00:45 AM 51.8030 -3.1530 103° East 511 588 37,000  Level FlightAware
Sat 06:00:52 AM 51.7978 -3.1212 103° East 496 571 37,000  Level FlightAware
Sat 06:01:07 AM 51.7894 -3.0678 104° East 512 589 37,000  Level FlightAware
Sat 06:01:43 AM 51.7693 -2.9345 104° East 511 588 37,000  Level FlightAware
Sat 06:02:16 AM 51.7506 -2.8129 104° East 510 587 37,000  Level FlightAware
Sat 06:02:46 AM 51.7331 -2.7021 104° East 510 587 37,000  Level FlightAware
Sat 06:03:17 AM 51.7156 -2.5881 104° East 510 587 37,000  Level FlightAware
Sat 06:03:49 AM 51.6967 -2.4706 105° East 510 587 37,000  Level FlightAware
Sat 06:04:21 AM 51.6790 -2.3610 105° East 508 585 37,000  Level FlightAware
Sat 06:04:30 AM 51.6730 -2.3205 103° East 509 586 37,000  Level FlightAware
Sat 06:05:01 AM 51.6549 -2.2070 104° East 507 583 37,000  Level FlightAware
Sat 06:05:31 AM 51.6369 -2.0979 105° East 506 582 37,000  Level FlightAware
Sat 06:06:09 AM 51.6151 -1.9600 104° East 505 581 37,000  Level FlightAware
Sat 06:06:39 AM 51.5970 -1.8510 105° East 505 581 37,000  Level FlightAware
Sat 06:07:09 AM 51.5790 -1.7426 105° East 505 581 37,000  Level FlightAware
Sat 06:07:39 AM 51.5610 -1.6341 105° East 504 580 37,000  Level FlightAware
Sat 06:08:09 AM 51.5429 -1.5259 105° East 504 580 37,000  Level FlightAware
Sat 06:08:40 AM 51.5245 -1.4142 105° East 504 580 37,000  Level FlightAware
Sat 06:09:10 AM 51.5059 -1.3060 105° East 503 579 37,000  Level FlightAware
Sat 06:09:41 AM 51.4898 -1.1935 103° East 503 579 37,000  Level FlightAware
Sat 06:10:11 AM 51.4781 -1.0836 100° East 503 579 37,000  Level FlightAware
Sat 06:10:51 AM 51.4662 -0.9358 97° East 503 579 37,000  Level FlightAware
Sat 06:11:23 AM 51.4567 -0.8179 97° East 501 577 37,000  Level FlightAware
Sat 06:11:54 AM 51.4471 -0.7042 98° East 501 577 37,000  Level FlightAware
Sat 06:12:25 AM 51.4369 -0.5904 98° East 501 577 37,000  Level FlightAware
Sat 06:12:56 AM 51.4265 -0.4771 98° East 500 575 37,000  Level FlightAware
Sat 06:13:30 AM 51.4146 -0.3526 99° East 499 574 37,000  Level FlightAware
Sat 06:14:06 AM 51.4023 -0.2212 98° East 500 575 37,000  Level FlightAware
Sat 06:14:36 AM 51.3918 -0.1119 99° East 499 574 37,000  Level FlightAware
Sat 06:15:11 AM 51.3797 0.0154 99° East 498 573 37,000  Level FlightAware
Sat 06:15:42 AM 51.3687 0.1279 99° East 498 573 37,000  Level FlightAware
Sat 06:16:12 AM 51.3578 0.2369 99° East 497 572 37,000  Level FlightAware
Sat 06:16:46 AM 51.3461 0.3600 99° East 496 571 37,000  Level FlightAware
Sat 06:17:19 AM 51.3339 0.4792 99° East 495 570 37,000  Level FlightAware
Sat 06:17:54 AM 51.3211 0.6051 99° East 494 568 37,000  Level FlightAware
Sat 06:18:25 AM 51.3099 0.7164 99° East 493 567 37,000  Level FlightAware
Sat 06:18:58 AM 51.2979 0.8345 99° East 491 565 37,000  Level FlightAware
Sat 06:19:30 AM 51.2861 0.9484 99° East 490 564 37,000  Level FlightAware
Sat 06:20:03 AM 51.2737 1.0655 100° East 488 562 37,000  Level FlightAware
Sat 06:20:36 AM 51.2614 1.1821 100° East 485 558 37,000  Level FlightAware
Sat 06:21:30 AM 51.2410 1.3680 100° East 482 555 37,000  Level FlightAware
Sat 06:22:02 AM 51.2290 1.4800 100° East 481 554 37,000  Level FlightAware
Sat 06:22:38 AM 51.2160 1.6020 100° East 480 552 37,000  Level FlightAware
Sat 06:23:14 AM 51.2020 1.7270 100° East 480 552 37,000  Level FlightAware
Sat 06:23:48 AM 51.1880 1.8460 101° East 480 552 37,000  Level FlightAware
Sat 06:24:22 AM 51.1740 1.9710 100° East 481 554 37,000  Level FlightAware
Sat 06:24:59 AM 51.1590 2.0960 101° East 481 554 37,000  Level FlightAware
Sat 06:25:31 AM 51.1274 2.2018 101° East 498 573 37,000  Level FlightAware
Sat 06:25:32 AM 51.1290 2.1980 101° East 478 550 37,000  Level FlightAware
Sat 06:26:07 AM 51.0791 2.3034 101° East 500 575 37,000  Level FlightAware
Sat 06:26:12 AM 51.0790 2.3040 101° East 478 550 37,000  Level FlightAware (CYTZ)
Sat 06:26:49 AM 51.0229 2.4216 101° East 502 578 37,000  Level FlightAware
Sat 06:26:52 AM 51.0210 2.4250 101° East 478 550 37,000  Level FlightAware
Sat 06:27:24 AM 50.9800 2.5120 127° Southeast 477 549 37,000  Level FlightAware
Sat 06:28:00 AM 50.9310 2.6150 127° Southeast 476 548 37,000  Level FlightAware
Sat 06:28:01 AM 50.9278 2.6233 127° Southeast 504 580 37,000  Level FlightAware
Sat 06:28:36 AM 50.8850 2.7130 127° Southeast 474 545 37,000  Level FlightAware
Sat 06:29:06 AM 50.8480 2.7940 126° Southeast 473 544 37,000  Level FlightAware
Sat 06:29:43 AM 50.8060 2.9150 119° Southeast 473 544 37,000  Level FlightAware
Sat 06:30:18 AM 50.7750 3.0180 115° Southeast 471 542 37,000  Level FlightAware
Sat 06:30:56 AM 50.7380 3.1410 115° Southeast 470 541 37,000  Level FlightAware
Sat 06:31:32 AM 50.7050 3.2460 116° Southeast 469 540 37,000  Level FlightAware
Sat 06:32:13 AM 50.6670 3.3720 115° Southeast 468 539 37,000  Level FlightAware
Sat 06:32:50 AM 50.6300 3.4910 116° Southeast 467 537 37,000  Level FlightAware
Sat 06:33:22 AM 50.6000 3.5890 116° Southeast 467 537 37,000  Level FlightAware
Sat 06:33:58 AM 50.5680 3.6890 117° Southeast 466 536 37,000  Level FlightAware
Sat 06:34:33 AM 50.5320 3.8050 116° Southeast 466 536 37,000  Level FlightAware
Sat 06:35:07 AM 50.5010 3.9050 116° Southeast 466 536 37,000  Level FlightAware
Sat 06:35:39 AM 50.4690 4.0050 117° Southeast 467 537 37,000  Level FlightAware
Sat 06:36:17 AM 50.4330 4.1170 117° Southeast 467 537 37,000  Level FlightAware
Sat 06:36:49 AM 50.4011 4.2214 117° Southeast 1 1 37,000  Level FlightAware
Sat 06:36:51 AM 50.3990 4.2230 117° Southeast 468 539 37,000  Level FlightAware
Sat 06:37:29 AM 50.3640 4.3330 116° Southeast 470 541 37,000  Level FlightAware
Sat 06:38:01 AM 50.3320 4.4330 116° Southeast 470 541 37,000  Level FlightAware
Sat 06:38:02 AM 50.3311 4.4409 116° Southeast 1 1 37,000  Level FlightAware
Sat 06:38:37 AM 50.2960 4.5420 117° Southeast 470 541 37,000  Level FlightAware
Sat 06:39:11 AM 50.2630 4.6480 116° Southeast 471 542 37,000  Level FlightAware
Sat 06:39:44 AM 50.2310 4.7490 116° Southeast 473 544 37,000  Level FlightAware
Sat 06:40:20 AM 50.2130 4.8690 103° East 477 549 37,000  Level FlightAware
Sat 06:40:58 AM 50.2040 4.9990 96° East 478 550 37,000  Level FlightAware
Sat 06:41:35 AM 50.1950 5.1260 96° East 479 551 37,000  Level FlightAware
Sat 06:42:04 AM 50.1860 5.2220 98° East 480 552 37,000  Level FlightAware
Sat 06:42:42 AM 50.1590 5.3410 109° East 475 547 37,000  Level FlightAware
Sat 06:43:19 AM 50.1190 5.4520 119° Southeast 476 548 37,000  Level FlightAware
Sat 06:43:51 AM 50.0830 5.5500 120° Southeast 477 549 37,000  Level FlightAware
Sat 06:44:29 AM 50.0420 5.6600 120° Southeast 479 551 37,000  Level FlightAware
Sat 06:45:04 AM 50.0040 5.7650 119° Southeast 479 551 37,000  Level FlightAware
Sat 06:45:36 AM 49.9650 5.8660 121° Southeast 481 554 37,000  Level FlightAware
Sat 06:46:12 AM 49.9280 5.9680 119° Southeast 482 555 37,000  Level FlightAware
Sat 06:46:44 AM 49.8900 6.0670 121° Southeast 483 556 37,000  Level FlightAware
Sat 06:47:24 AM 49.8440 6.1890 120° Southeast 485 558 37,000  Level FlightAware
Sat 06:47:56 AM 49.8100 6.2830 119° Southeast 487 560 37,000  Level FlightAware
Sat 06:48:30 AM 49.7710 6.3850 121° Southeast 488 562 37,000  Level FlightAware
Sat 06:49:10 AM 49.7260 6.5020 121° Southeast 487 560 37,000  Level FlightAware
Sat 06:49:40 AM 49.6890 6.5980 121° Southeast 487 560 37,000  Level FlightAware
Sat 06:50:17 AM 49.6480 6.7060 120° Southeast 489 563 37,000  Level FlightAware
Sat 06:50:52 AM 49.6090 6.8070 121° Southeast 489 563 37,000  Level FlightAware
Sat 06:51:28 AM 49.5650 6.9210 121° Southeast 488 562 37,000  Level FlightAware
Sat 06:52:02 AM 49.5260 7.0220 121° Southeast 488 562 37,000  Level FlightAware
Sat 06:52:38 AM 49.4840 7.1300 121° Southeast 489 563 37,000  Level FlightAware
Sat 06:53:10 AM 49.4480 7.2220 121° Southeast 489 563 37,000  Level FlightAware
Sat 06:53:50 AM 49.4020 7.3380 121° Southeast 492 566 37,000  Level FlightAware
Sat 06:54:22 AM 49.3640 7.4370 120° Southeast 495 570 37,000  Level FlightAware
Sat 06:54:58 AM 49.3210 7.5460 121° Southeast 498 573 37,000  Level FlightAware
Sat 06:55:34 AM 49.2780 7.6510 122° Southeast 498 573 37,000  Level FlightAware
Sat 06:56:06 AM 49.2390 7.7500 121° Southeast 499 574 37,000  Level FlightAware
Sat 06:56:42 AM 49.1960 7.8560 122° Southeast 502 578 37,000  Level FlightAware
Sat 06:57:18 AM 49.1490 7.9570 125° Southeast 501 577 37,000  Level FlightAware
Sat 06:57:52 AM 49.0980 8.0520 129° Southeast 502 578 37,000  Level FlightAware
Sat 06:58:28 AM 49.0440 8.1460 131° Southeast 503 579 37,000  Level FlightAware
Sat 06:59:02 AM 48.9910 8.2360 132° Southeast 505 581 37,000  Level FlightAware
Sat 06:59:36 AM 48.9380 8.3290 131° Southeast 504 580 37,000  Level FlightAware
Sat 07:00:10 AM 48.8840 8.4180 133° Southeast 503 579 37,000  Level FlightAware
Sat 07:00:44 AM 48.8290 8.5130 131° Southeast 503 579 37,000  Level FlightAware
Sat 07:01:24 AM 48.7680 8.6120 133° Southeast 502 578 37,000  Level FlightAware
Sat 07:02:00 AM 48.7140 8.7030 132° Southeast 503 579 37,000  Level FlightAware
Sat 07:02:32 AM 48.6650 8.7870 131° Southeast 504 580 37,000  Level FlightAware
Sat 07:03:07 AM 48.6050 8.8860 132° Southeast 507 583 37,000  Level FlightAware
Sat 07:03:44 AM 48.5470 8.9810 133° Southeast 509 586 37,000  Level FlightAware
Sat 07:04:16 AM 48.4960 9.0670 132° Southeast 511 588 37,000  Level FlightAware
Sat 07:04:53 AM 48.4380 9.1620 133° Southeast 513 590 37,000  Level FlightAware
Sat 07:05:30 AM 48.3780 9.2600 133° Southeast 518 596 37,000  Level FlightAware
Sat 07:06:02 AM 48.3270 9.3450 132° Southeast 519 597 37,000  Level FlightAware
Sat 07:06:37 AM 48.2680 9.4370 134° Southeast 519 597 37,000  Level FlightAware
Sat 07:07:14 AM 48.2030 9.5300 136° Southeast 517 595 37,000  Level FlightAware
Sat 07:07:45 AM 48.1470 9.6000 140° Southeast 518 596 37,000  Level FlightAware
Sat 07:08:22 AM 48.0820 9.6870 138° Southeast 514 592 37,000  Level FlightAware
Sat 07:08:57 AM 48.0170 9.7690 140° Southeast 498 573 37,000  Level FlightAware
Sat 07:09:33 AM 47.9560 9.8480 139° Southeast 485 558 37,000  Level FlightAware
Sat 07:10:14 AM 47.8890 9.9320 140° Southeast 482 555 37,000  Level FlightAware
Sat 07:10:49 AM 47.8280 10.0060 141° Southeast 482 555 37,000  Level FlightAware
Sat 07:11:25 AM 47.7610 10.0840 142° Southeast 495 570 37,000 169 Level FlightAware
Sat 07:12:00 AM 47.6960 10.1550 144° Southeast 503 579 37,200 600 Climbing FlightAware
Sat 07:12:35 AM 47.6320 10.2260 143° Southeast 504 580 37,700 909 Climbing FlightAware
Sat 07:13:06 AM 47.5760 10.2870 144° Southeast 504 580 38,200 716 Climbing FlightAware
Sat 07:13:42 AM 47.5050 10.3650 143° Southeast 507 583 38,500 468 Climbing FlightAware
Sat 07:14:23 AM 47.4270 10.4480 144° Southeast 512 589 38,800 385 Climbing FlightAware
Sat 07:15:00 AM 47.3530 10.5160 148° Southeast 508 585 39,000 174 Climbing FlightAware
Sat 07:15:32 AM 47.2880 10.5690 151° Southeast 508 585 39,000  Level FlightAware
Sat 07:16:12 AM 47.2060 10.6330 152° Southeast 508 585 39,000  Level FlightAware
Sat 07:16:50 AM 47.1250 10.6860 156° South 504 580 39,000  Level FlightAware
Sat 07:17:25 AM 47.0480 10.7290 159° South 502 578 39,000  Level FlightAware
Sat 07:18:02 AM 46.9680 10.7730 159° South 505 581 39,000  Level FlightAware
Sat 07:18:26 AM 46.9190 10.8180 148° Southeast 519 597 39,000  Level FlightAware
Sat 07:18:59 AM 46.8610 10.8990 136° Southeast 524 603 39,000  Level FlightAware
Sat 07:19:34 AM 46.8030 10.9900 133° Southeast 527 606 39,000  Level FlightAware
Sat 07:20:14 AM 46.7410 11.0940 131° Southeast 523 602 39,000  Level FlightAware
Sat 07:20:49 AM 46.6850 11.1900 130° Southeast 529 609 39,000  Level FlightAware
Sat 07:21:24 AM 46.6280 11.2810 132° Southeast 531 611 39,000  Level FlightAware
Sat 07:22:01 AM 46.5640 11.3840 132° Southeast 531 611 39,000  Level FlightAware
Sat 07:22:38 AM 46.5020 11.4810 133° Southeast 533 613 39,000  Level FlightAware
Sat 07:23:10 AM 46.4510 11.5600 133° Southeast 534 615 39,000  Level FlightAware
Sat 07:23:47 AM 46.3880 11.6600 132° Southeast 534 615 39,000  Level FlightAware
Sat 07:24:17 AM 46.3380 11.7390 132° Southeast 534 615 39,000  Level FlightAware
Sat 07:24:58 AM 46.2680 11.8460 133° Southeast 534 615 39,000  Level FlightAware
Sat 07:25:32 AM 46.2100 11.9380 132° Southeast 533 613 39,000  Level FlightAware
Sat 07:26:07 AM 46.1510 12.0290 133° Southeast 533 613 39,000  Level FlightAware
Sat 07:26:48 AM 46.0830 12.1360 132° Southeast 533 613 39,000  Level FlightAware
Sat 07:27:25 AM 46.0260 12.2240 133° Southeast 533 613 39,000  Level FlightAware
Sat 07:27:56 AM 45.9720 12.3070 133° Southeast 532 612 39,000  Level FlightAware
Sat 07:28:34 AM 45.9100 12.4030 133° Southeast 527 606 39,000  Level FlightAware
Sat 07:29:09 AM 45.8520 12.4900 134° Southeast 526 605 39,000  Level FlightAware
Sat 07:29:44 AM 45.7950 12.5910 129° Southeast 529 609 39,000  Level FlightAware
Sat 07:30:21 AM 45.7410 12.6970 126° Southeast 530 610 39,000  Level FlightAware
Sat 07:31:01 AM 45.6800 12.8130 127° Southeast 533 613 39,000  Level FlightAware
Sat 07:31:36 AM 45.6330 12.9030 127° Southeast 533 613 39,000  Level FlightAware
Sat 07:32:17 AM 45.5680 13.0230 128° Southeast 529 609 39,000  Level FlightAware
Sat 07:32:52 AM 45.5150 13.1200 128° Southeast 534 615 39,000  Level FlightAware
Sat 07:33:27 AM 45.4620 13.2210 127° Southeast 534 615 39,000  Level FlightAware
Sat 07:34:02 AM 45.4110 13.3170 127° Southeast 534 615 39,000  Level FlightAware
Sat 07:34:37 AM 45.3590 13.4140 127° Southeast 527 606 39,000  Level FlightAware
Sat 07:35:12 AM 45.3050 13.5000 132° Southeast 531 611 39,000  Level FlightAware
Sat 07:36:03 AM 45.2200 13.6340 132° Southeast 531 611 39,000  Level FlightAware
Sat 07:36:38 AM 45.1620 13.7340 129° Southeast 532 612 39,000  Level FlightAware
Sat 07:37:08 AM 45.1200 13.8120 127° Southeast 533 613 39,000  Level FlightAware
Sat 07:37:43 AM 45.0700 13.9060 127° Southeast 533 613 39,000  Level FlightAware
Sat 07:38:19 AM 45.0120 14.0110 128° Southeast 533 613 39,000  Level FlightAware
Sat 07:38:56 AM 44.9590 14.1070 128° Southeast 534 615 39,000  Level FlightAware
Sat 07:39:28 AM 44.9110 14.1960 127° Southeast 533 613 39,000  Level FlightAware
Sat 07:40:07 AM 44.8540 14.3040 127° Southeast 533 613 39,000  Level FlightAware
Sat 07:40:37 AM 44.8060 14.3920 128° Southeast 534 615 39,000  Level FlightAware
Sat 07:41:23 AM 44.7400 14.5130 127° Southeast 534 615 39,000  Level FlightAware
Sat 07:41:54 AM 44.6960 14.5960 127° Southeast 534 615 39,000  Level FlightAware
Sat 07:42:30 AM 44.6370 14.7030 128° Southeast 534 615 39,000  Level FlightAware
Sat 07:43:05 AM 44.5830 14.7990 128° Southeast 534 615 39,000  Level FlightAware
Sat 07:43:41 AM 44.5340 14.8900 127° Southeast 530 610 39,000  Level FlightAware
Sat 07:44:39 AM 44.4490 15.0470 127° Southeast 532 612 39,000  Level FlightAware
Sat 07:45:15 AM 44.3930 15.1450 129° Southeast 538 619 39,000  Level FlightAware
Sat 07:45:50 AM 44.3290 15.2580 128° Southeast 534 615 39,000  Level FlightAware
Sat 07:46:21 AM 44.2890 15.3290 128° Southeast 535 616 39,000  Level FlightAware
Sat 07:46:56 AM 44.2300 15.4360 128° Southeast 536 617 39,000  Level FlightAware
Sat 07:47:36 AM 44.1690 15.5460 128° Southeast 537 618 39,000  Level FlightAware
Sat 07:48:19 AM 44.1060 15.6560 129° Southeast 536 617 39,000  Level FlightAware
Sat 07:48:59 AM 44.0410 15.7700 128° Southeast 542 624 39,000  Level FlightAware
Sat 07:49:33 AM 43.9890 15.8630 128° Southeast 541 623 39,000  Level FlightAware
Sat 07:50:07 AM 43.9330 15.9580 129° Southeast 541 623 39,000  Level FlightAware
Sat 07:50:51 AM 43.8630 16.0810 128° Southeast 543 625 39,000  Level FlightAware
Sat 07:51:27 AM 43.8070 16.1790 128° Southeast 543 625 39,000  Level FlightAware
Sat 07:51:59 AM 43.7570 16.2660 128° Southeast 544 626 39,000  Level FlightAware
Sat 07:52:36 AM 43.7010 16.3630 129° Southeast 545 627 39,000  Level FlightAware
Sat 07:53:08 AM 43.6500 16.4500 129° Southeast 545 627 39,000  Level FlightAware
Sat 07:53:48 AM 43.5880 16.5560 129° Southeast 544 626 39,000  Level FlightAware
Sat 07:54:17 AM 43.5430 16.6350 128° Southeast 545 627 39,000  Level FlightAware
Sat 07:54:52 AM 43.4870 16.7290 129° Southeast 540 621 39,000  Level FlightAware
Sat 07:55:32 AM 43.4260 16.8340 129° Southeast 540 621 39,000  Level FlightAware
Sat 07:55:56 AM 43.3840 16.9040 130° Southeast 541 623 39,000  Level FlightAware
Sat 07:56:36 AM 43.3220 17.0090 129° Southeast 539 620 39,000  Level FlightAware
Sat 07:57:02 AM 43.2830 17.0760 129° Southeast 539 620 39,000  Level FlightAware
Sat 07:57:45 AM 43.2120 17.1940 130° Southeast 539 620 39,000  Level FlightAware
Sat 07:58:19 AM 43.1590 17.2810 130° Southeast 539 620 39,000  Level FlightAware
Sat 07:58:59 AM 43.0920 17.3930 129° Southeast 537 618 39,000  Level FlightAware
Sat 07:59:33 AM 43.0400 17.4800 129° Southeast 537 618 39,000  Level FlightAware
Sat 08:00:13 AM 42.9790 17.5830 129° Southeast 536 617 39,000  Level FlightAware
Sat 08:00:45 AM 42.9220 17.6760 130° Southeast 540 621 39,000  Level FlightAware
Sat 08:01:21 AM 42.8650 17.7700 130° Southeast 538 619 39,000  Level FlightAware
Sat 08:01:57 AM 42.8110 17.8580 130° Southeast 539 620 39,000  Level FlightAware
Sat 08:02:33 AM 42.7510 17.9570 130° Southeast 536 617 39,000  Level FlightAware
Sat 08:03:05 AM 42.7010 18.0370 130° Southeast 536 617 39,000  Level FlightAware
Sat 08:03:37 AM 42.6490 18.1230 129° Southeast 536 617 39,000  Level FlightAware
Sat 08:04:17 AM 42.5840 18.2280 130° Southeast 536 617 39,000  Level FlightAware
Sat 08:04:48 AM 42.5350 18.3010 132° Southeast 536 617 39,000  Level FlightAware
Sat 08:05:25 AM 42.4700 18.3910 134° Southeast 534 615 39,000  Level FlightAware
Sat 08:06:01 AM 42.4080 18.4740 135° Southeast 534 615 39,000  Level FlightAware
Sat 08:06:37 AM 42.3430 18.5580 136° Southeast 534 615 39,000  Level FlightAware
Sat 08:07:11 AM 42.2810 18.6380 136° Southeast 535 616 39,000  Level FlightAware
Sat 08:07:47 AM 42.2180 18.7170 137° Southeast 534 615 39,000  Level FlightAware
Sat 08:08:21 AM 42.1580 18.7930 137° Southeast 534 615 39,000  Level FlightAware
Sat 08:08:51 AM 42.1020 18.8630 137° Southeast 534 615 39,000  Level FlightAware
Sat 08:09:39 AM 42.0140 18.9740 137° Southeast 533 613 39,000  Level FlightAware
Sat 08:10:11 AM 41.9570 19.0470 136° Southeast 532 612 39,000  Level FlightAware
Sat 08:10:47 AM 41.8930 19.1260 137° Southeast 532 612 39,000  Level FlightAware
Sat 08:11:23 AM 41.8280 19.2070 137° Southeast 532 612 39,000  Level FlightAware
Sat 08:11:57 AM 41.7650 19.2860 137° Southeast 532 612 39,000  Level FlightAware
Sat 08:12:39 AM 41.6910 19.3780 137° Southeast 531 611 39,000  Level FlightAware
Sat 08:13:15 AM 41.6250 19.4600 137° Southeast 530 610 39,000  Level FlightAware
Sat 08:13:51 AM 41.5610 19.5400 137° Southeast 530 610 39,000  Level FlightAware
Sat 08:14:21 AM 41.5080 19.6040 138° Southeast 530 610 39,000  Level FlightAware
Sat 08:14:59 AM 41.4400 19.6880 137° Southeast 529 609 39,000  Level FlightAware
Sat 08:15:41 AM 41.3730 19.7740 136° Southeast 530 610 39,000  Level FlightAware
Sat 08:16:23 AM 41.2950 19.8810 134° Southeast 529 609 39,000  Level FlightAware
Sat 08:16:57 AM 41.2340 19.9630 135° Southeast 529 609 39,000  Level FlightAware
Sat 08:17:38 AM 41.1640 20.0580 134° Southeast 527 606 39,000  Level FlightAware
Sat 08:18:13 AM 41.1050 20.1360 135° Southeast 527 606 39,000  Level FlightAware
Sat 08:18:52 AM 41.0380 20.2250 135° Southeast 526 605 39,000  Level FlightAware
Sat 08:19:23 AM 40.9840 20.2980 134° Southeast 526 605 39,000  Level FlightAware
Sat 08:19:59 AM 40.9220 20.3770 136° Southeast 526 605 39,000  Level FlightAware
Sat 08:20:37 AM 40.8570 20.4630 135° Southeast 524 603 39,000  Level FlightAware
Sat 08:21:09 AM 40.8020 20.5350 135° Southeast 523 602 39,000  Level FlightAware
Sat 08:21:45 AM 40.7400 20.6190 134° Southeast 523 602 39,000  Level FlightAware
Sat 08:22:22 AM 40.6760 20.7020 135° Southeast 523 602 39,000  Level FlightAware
Sat 08:22:54 AM 40.6210 20.7710 136° Southeast 522 601 39,000  Level FlightAware
Sat 08:23:30 AM 40.5600 20.8520 135° Southeast 521 600 39,000  Level FlightAware
Sat 08:24:06 AM 40.4980 20.9340 135° Southeast 521 600 39,000  Level FlightAware
Sat 08:24:42 AM 40.4330 21.0110 138° Southeast 518 596 39,000  Level FlightAware
Sat 08:25:14 AM 40.3800 21.0840 134° Southeast 523 602 39,000  Level FlightAware
Sat 08:25:50 AM 40.3230 21.1680 132° Southeast 523 602 39,000  Level FlightAware
Sat 08:26:26 AM 40.2650 21.2560 131° Southeast 524 603 39,000  Level FlightAware
Sat 08:26:58 AM 40.2130 21.3320 132° Southeast 525 604 39,000  Level FlightAware
Sat 08:27:34 AM 40.1540 21.4160 133° Southeast 526 605 39,000  Level FlightAware
Sat 08:28:10 AM 40.0960 21.4970 133° Southeast 526 605 39,000  Level FlightAware
Sat 08:28:44 AM 40.0380 21.5790 133° Southeast 525 604 39,000  Level FlightAware
Sat 08:29:20 AM 39.9790 21.6600 134° Southeast 525 604 39,000  Level FlightAware
Sat 08:29:56 AM 39.9190 21.7470 132° Southeast 523 602 39,000  Level FlightAware
Sat 08:30:32 AM 39.8620 21.8290 132° Southeast 523 602 39,000  Level FlightAware
Sat 08:31:06 AM 39.8060 21.9100 132° Southeast 522 601 39,000  Level FlightAware
Sat 08:31:40 AM 39.7520 21.9870 132° Southeast 522 601 39,000  Level FlightAware
Sat 08:32:18 AM 39.6890 22.0770 132° Southeast 521 600 39,000  Level FlightAware
Sat 08:32:58 AM 39.6240 22.1690 133° Southeast 520 598 39,000  Level FlightAware
Sat 08:33:32 AM 39.5690 22.2480 132° Southeast 519 597 39,000  Level FlightAware
Sat 08:34:10 AM 39.5070 22.3350 133° Southeast 518 596 39,000  Level FlightAware
Sat 08:34:40 AM 39.4580 22.4030 133° Southeast 518 596 39,000  Level FlightAware
Sat 08:35:18 AM 39.3970 22.4900 132° Southeast 518 596 39,000  Level FlightAware
Sat 08:35:54 AM 39.3380 22.5720 133° Southeast 518 596 39,000  Level FlightAware
Sat 08:36:30 AM 39.2800 22.6540 132° Southeast 518 596 39,000  Level FlightAware
Sat 08:37:02 AM 39.2290 22.7260 132° Southeast 518 596 39,000  Level FlightAware
Sat 08:37:38 AM 39.1700 22.8080 133° Southeast 518 596 39,000  Level FlightAware
Sat 08:38:15 AM 39.1130 22.8840 134° Southeast 518 596 39,000  Level FlightAware
Sat 08:38:47 AM 39.0570 22.9640 132° Southeast 517 595 39,000  Level FlightAware
Sat 08:39:23 AM 38.9980 23.0450 133° Southeast 520 598 39,000  Level FlightAware
Sat 08:39:59 AM 38.9400 23.1260 133° Southeast 520 598 39,000  Level FlightAware
Sat 08:40:31 AM 38.8860 23.1980 134° Southeast 521 600 39,000  Level FlightAware
Sat 08:41:07 AM 38.8280 23.2780 133° Southeast 522 601 39,000  Level FlightAware
Sat 08:41:43 AM 38.7680 23.3610 133° Southeast 524 603 39,000  Level FlightAware
Sat 08:42:18 AM 38.7090 23.4410 133° Southeast 524 603 39,000  Level FlightAware
Sat 08:42:52 AM 38.6530 23.5180 133° Southeast 527 606 39,000  Level FlightAware
Sat 08:43:28 AM 38.5930 23.5990 133° Southeast 527 606 39,000  Level FlightAware
Sat 08:44:00 AM 38.5390 23.6720 133° Southeast 529 609 39,000  Level FlightAware
Sat 08:44:36 AM 38.4790 23.7540 133° Southeast 530 610 39,000  Level FlightAware
Sat 08:45:12 AM 38.4170 23.8350 134° Southeast 531 611 39,000  Level FlightAware
Sat 08:45:46 AM 38.3590 23.9150 133° Southeast 531 611 39,000  Level FlightAware
Sat 08:46:14 AM 38.3130 23.9760 134° Southeast 532 612 39,000  Level FlightAware
Sat 08:46:51 AM 38.2490 24.0600 134° Southeast 533 613 39,000  Level FlightAware
Sat 08:47:29 AM 38.1840 24.1460 134° Southeast 532 612 39,000  Level FlightAware
Sat 08:48:01 AM 38.1310 24.2190 133° Southeast 532 612 39,000  Level FlightAware
Sat 08:48:36 AM 38.0710 24.2980 134° Southeast 532 612 39,000  Level FlightAware
Sat 08:49:10 AM 38.0150 24.3720 134° Southeast 532 612 39,000  Level FlightAware
Sat 08:49:44 AM 37.9550 24.4510 134° Southeast 533 613 39,000  Level FlightAware
Sat 08:50:22 AM 37.8920 24.5340 134° Southeast 533 613 39,000  Level FlightAware
Sat 08:50:59 AM 37.8260 24.6200 134° Southeast 535 616 39,000  Level FlightAware
Sat 08:51:31 AM 37.7780 24.6960 129° Southeast 541 623 39,000  Level FlightAware
Sat 08:52:07 AM 37.7260 24.7890 125° Southeast 543 625 39,000  Level FlightAware
Sat 08:52:44 AM 37.6730 24.8850 125° Southeast 543 625 39,000  Level FlightAware
Sat 08:53:14 AM 37.6290 24.9630 125° Southeast 544 626 39,000  Level FlightAware
Sat 08:53:52 AM 37.5730 25.0640 125° Southeast 544 626 39,000  Level FlightAware
Sat 08:54:28 AM 37.5210 25.1570 125° Southeast 546 628 39,000  Level FlightAware
Sat 08:55:00 AM 37.4770 25.2350 125° Southeast 546 628 39,000  Level FlightAware
Sat 08:55:38 AM 37.4200 25.3330 126° Southeast 546 628 39,000  Level FlightAware
Sat 08:56:14 AM 37.3690 25.4260 125° Southeast 546 628 39,000  Level FlightAware
Sat 08:56:44 AM 37.3240 25.5040 126° Southeast 546 628 39,000  Level FlightAware
Sat 08:57:22 AM 37.2670 25.6050 125° Southeast 546 628 39,000  Level FlightAware
Sat 08:57:56 AM 37.2200 25.6840 127° Southeast 546 628 39,000  Level FlightAware
Sat 08:58:30 AM 37.1670 25.7800 125° Southeast 546 628 39,000  Level FlightAware
Sat 08:59:06 AM 37.1130 25.8720 126° Southeast 548 631 39,000  Level FlightAware
Sat 08:59:44 AM 37.0560 25.9700 126° Southeast 548 631 39,000  Level FlightAware
Sat 09:00:16 AM 37.0070 26.0540 126° Southeast 547 629 39,000  Level FlightAware
Sat 09:00:52 AM 36.9540 26.1470 125° Southeast 547 629 39,000  Level FlightAware
Sat 09:01:28 AM 36.9000 26.2390 126° Southeast 547 629 39,000  Level FlightAware
Sat 09:02:00 AM 36.8520 26.3200 127° Southeast 547 629 39,000  Level FlightAware
Sat 09:02:36 AM 36.8000 26.4120 125° Southeast 546 628 39,000  Level FlightAware
Sat 09:03:12 AM 36.7450 26.5030 127° Southeast 546 628 39,000  Level FlightAware
Sat 09:03:45 AM 36.6980 26.5850 126° Southeast 545 627 39,000  Level FlightAware
Sat 09:04:20 AM 36.6450 26.6760 126° Southeast 544 626 39,000  Level FlightAware
Sat 09:04:57 AM 36.5890 26.7690 127° Southeast 543 625 39,000  Level FlightAware
Sat 09:05:33 AM 36.5360 26.8570 127° Southeast 543 625 39,000  Level FlightAware
Sat 09:06:05 AM 36.4880 26.9400 126° Southeast 542 624 39,000  Level FlightAware
Sat 09:06:39 AM 36.4400 27.0200 127° Southeast 540 621 39,000  Level FlightAware
Sat 09:07:18 AM 36.3910 27.1030 126° Southeast 540 621 39,000  Level FlightAware
Sat 09:08:06 AM 36.3200 27.2190 127° Southeast 540 621 39,000  Level FlightAware
Sat 09:08:46 AM 36.2620 27.3170 126° Southeast 539 620 39,000  Level FlightAware
Sat 09:09:22 AM 36.2170 27.3930 126° Southeast 539 620 39,000  Level FlightAware
Sat 09:09:59 AM 36.1710 27.4720 126° Southeast 539 620 39,000  Level FlightAware
Sat 09:10:35 AM 36.1260 27.5480 126° Southeast 539 620 39,000  Level FlightAware
Sat 09:13:00 AM 35.9362 27.9214 122° Southeast  Level Estimated
Sat 09:14:00 AM 35.8573 28.0753 122° Southeast  Level Estimated
Sat 09:14:09 AM 35.7630 28.1360 122° Southeast 541 623 39,000  Level FlightAware
Sat 09:14:45 AM 35.7100 28.2220 127° Southeast 541 623 39,000  Level FlightAware
Sat 09:15:22 AM 35.6540 28.3120 127° Southeast 541 623 39,000  Level FlightAware
Sat 09:15:53 AM 35.6060 28.3910 127° Southeast 541 623 39,000  Level FlightAware
Sat 09:16:29 AM 35.5520 28.4760 128° Southeast 540 621 39,000  Level FlightAware
Sat 09:17:05 AM 35.4960 28.5660 127° Southeast 539 620 39,000  Level FlightAware
Sat 09:17:41 AM 35.4420 28.6530 127° Southeast 538 619 39,000  Level FlightAware
Sat 09:18:15 AM 35.3900 28.7360 128° Southeast 537 618 39,000  Level FlightAware
Sat 09:18:49 AM 35.3390 28.8180 127° Southeast 536 617 39,000  Level FlightAware
Sat 09:19:28 AM 35.2860 28.9020 128° Southeast 535 616 39,000  Level FlightAware
Sat 09:20:07 AM 35.2270 28.9950 128° Southeast 534 615 39,000  Level FlightAware
Sat 09:20:45 AM 35.1790 29.0730 127° Southeast 534 615 39,000  Level FlightAware
Sat 09:21:21 AM 35.1340 29.1470 127° Southeast 534 615 39,000  Level FlightAware
Sat 09:22:07 AM 35.0760 29.2410 127° Southeast 534 615 39,000  Level FlightAware
Sat 09:22:44 AM 35.0290 29.3170 127° Southeast 534 615 39,000  Level FlightAware
Sat 09:23:20 AM 34.9830 29.3910 127° Southeast 534 615 39,000  Level FlightAware
Sat 09:23:58 AM 34.8730 29.5510 130° Southeast 530 610 39,000  Level FlightAware
Sat 09:24:28 AM 34.8280 29.6220 128° Southeast 529 609 39,000  Level FlightAware
Sat 09:25:13 AM 34.7600 29.7270 128° Southeast 527 606 39,000  Level FlightAware
Sat 09:25:48 AM 34.7100 29.8040 128° Southeast 527 606 39,000  Level FlightAware
Sat 09:26:25 AM 34.6560 29.8880 128° Southeast 527 606 39,000  Level FlightAware
Sat 09:27:08 AM 34.5990 29.9760 128° Southeast 527 606 39,000  Level FlightAware
Sat 09:27:39 AM 34.5520 30.0640 123° Southeast 636 732 39,000  Level FlightAware
Sat 09:28:15 AM 34.5020 30.1670 120° Southeast 528 608 39,000  Level FlightAware
Sat 09:29:01 AM 34.4530 30.2730 119° Southeast 528 608 39,000  Level FlightAware
Sat 09:29:32 AM 34.4070 30.3650 121° Southeast 529 609 39,000  Level FlightAware
Sat 09:30:07 AM 34.3650 30.4530 120° Southeast 523 602 39,000  Level FlightAware
Sat 09:30:37 AM 34.3270 30.5310 121° Southeast 516 594 39,000  Level FlightAware
Sat 09:31:17 AM 34.2780 30.6310 121° Southeast 513 590 39,000  Level FlightAware
Sat 09:31:52 AM 34.2360 30.7180 120° Southeast 516 594 39,000  Level FlightAware
Sat 09:32:27 AM 34.1920 30.8070 121° Southeast 515 593 39,000  Level FlightAware
Sat 09:33:03 AM 34.1510 30.8910 121° Southeast 515 593 39,000  Level FlightAware
Sat 09:33:38 AM 34.1070 30.9800 121° Southeast 514 592 39,000  Level FlightAware
Sat 09:34:13 AM 34.0650 31.0660 121° Southeast 513 590 39,000  Level FlightAware
Sat 09:34:48 AM 34.0220 31.1520 121° Southeast 513 590 39,000  Level FlightAware
Sat 09:35:23 AM 33.9810 31.2350 121° Southeast 512 589 39,000  Level FlightAware
Sat 09:35:58 AM 33.9380 31.3210 121° Southeast 512 589 39,000  Level FlightAware
Sat 09:36:34 AM 33.8940 31.4120 120° Southeast 512 589 39,000  Level FlightAware
Sat 09:37:09 AM 33.8510 31.4970 121° Southeast 508 585 39,000  Level FlightAware
Sat 09:37:40 AM 33.8140 31.5700 121° Southeast 507 583 39,000  Level FlightAware
Sat 09:38:19 AM 33.7650 31.6680 121° Southeast 507 583 39,000  Level FlightAware
Sat 09:38:54 AM 33.7240 31.7500 121° Southeast 508 585 39,000  Level FlightAware
Sat 09:39:29 AM 33.6800 31.8380 121° Southeast 507 583 39,000  Level FlightAware
Sat 09:40:09 AM 33.6320 31.9330 121° Southeast 507 583 39,000  Level FlightAware
Sat 09:40:44 AM 33.5890 32.0150 122° Southeast 506 582 39,000  Level FlightAware
Sat 09:41:19 AM 33.5450 32.1040 121° Southeast 506 582 39,000  Level FlightAware
Sat 09:41:54 AM 33.5010 32.1890 122° Southeast 505 581 39,000 -338 Level FlightAware
Sat 09:42:30 AM 33.4580 32.2750 121° Southeast 503 579 38,600 -943 Descending FlightAware
Sat 09:43:04 AM 33.4190 32.3520 121° Southeast 505 581 37,900 -1,271 Descending FlightAware
Sat 09:43:55 AM 33.3560 32.4750 121° Southeast 507 583 36,800 -923 Descending FlightAware
Sat 09:44:35 AM 33.3120 32.5630 121° Southeast 508 585 36,500 -1,360 Descending FlightAware
Sat 09:45:10 AM 33.2610 32.6580 123° Southeast 508 585 35,100 -2,229 Descending FlightAware
Sat 09:45:45 AM 33.2170 32.7440 121° Southeast 499 574 33,900 -1,233 Descending FlightAware
Sat 09:46:23 AM 33.1800 32.8170 121° Southeast 502 578 33,600 -243 Descending FlightAware
Sat 09:46:59 AM 33.1430 32.8900 121° Southeast 502 578 33,600 -3,323 Level FlightAware
Sat 09:47:28 AM 33.0920 32.9840 123° Southeast 487 560 30,000 -4,435 Descending FlightAware
Sat 09:48:08 AM 33.0460 33.0780 120° Southeast 479 551 28,500 -2,113 Descending FlightAware
Sat 09:48:39 AM 33.0110 33.1450 122° Southeast 468 539 27,500 -1,971 Descending FlightAware
Sat 09:49:18 AM 32.9690 33.2270 121° Southeast 455 524 26,200 -1,920 Descending FlightAware
Sat 09:49:54 AM 32.9280 33.3070 121° Southeast 439 505 25,100 -1,029 Descending FlightAware
Sat 09:50:28 AM 32.8930 33.3750 121° Southeast 433 498 25,000 -1,416 Descending FlightAware
Sat 09:51:23 AM 32.8360 33.4880 121° Southeast 424 488 23,000 -2,093 Descending FlightAware
Sat 09:51:54 AM 32.8050 33.5470 122° Southeast 418 481 22,000 -1,421 Descending FlightAware
Sat 09:52:39 AM 32.7630 33.6290 121° Southeast 415 478 21,200 -2,122 Descending FlightAware
Sat 09:53:16 AM 32.7220 33.7060 122° Southeast 399 459 19,100 -2,783 Descending FlightAware
Sat 09:53:48 AM 32.6920 33.7650 121° Southeast 391 450 18,000 -1,913 Descending FlightAware
Sat 09:54:25 AM 32.6580 33.8290 122° Southeast 374 430 16,900 -1,662 Descending FlightAware
Sat 09:54:53 AM 32.6330 33.8770 122° Southeast 355 409 16,200 -1,500 Descending FlightAware
Sat 09:55:37 AM 32.5960 33.9480 122° Southeast 339 390 15,100 -1,459 Descending FlightAware
Sat 09:56:07 AM 32.5710 33.9970 121° Southeast 328 377 14,400 -1,313 Descending FlightAware
Sat 09:56:41 AM 32.5450 34.0460 122° Southeast 323 372 13,700 -1,343 Descending FlightAware
Sat 09:57:14 AM 32.5190 34.0970 121° Southeast 314 361 12,900 -1,333 Descending FlightAware
Sat 09:57:53 AM 32.4890 34.1520 123° Southeast 308 354 12,100 -1,325 Descending FlightAware
Sat 09:58:31 AM 32.4530 34.1990 132° Southeast 306 352 11,200 -1,371 Descending FlightAware
Sat 09:59:03 AM 32.4210 34.2360 136° Southeast 307 353 10,500 -846 Descending FlightAware
Sat 09:59:49 AM 32.3780 34.2880 134° Southeast 304 350 10,100 -1,200 Descending FlightAware
Sat 10:00:28 AM 32.3350 34.3370 136° Southeast 295 339 8,800 -1,655 Descending FlightAware
Sat 10:00:47 AM 32.3190 34.3560 135° Southeast 290 334 8,500 -383 Descending FlightAware
Sat 10:01:15 AM 32.2960 34.3830 135° Southeast 290 334 8,500  Level FlightAware
Sat 10:01:39 AM 32.2770 34.4060 134° Southeast 290 334 8,500  Level FlightAware
Sat 10:02:03 AM 32.2570 34.4290 136° Southeast 290 334 8,500  Level FlightAware
Sat 10:02:27 AM 32.2380 34.4520 134° Southeast 290 334 8,500 -2,791 Level FlightAware
Sat 10:02:46 AM 32.2260 34.4970 107° East 432 497 6,500 -4,400 Descending FlightAware
Sat 10:02:57 AM 32.2200 34.5080 123° Southeast 274 315 6,300 -1,241 Descending FlightAware
Sat 10:03:15 AM 32.2050 34.5330 125° Southeast 274 315 5,900 -1,135 Descending FlightAware
Sat 10:03:34 AM 32.1940 34.5510 126° Southeast 272 313 5,600 -400 Descending FlightAware
Sat 10:04:00 AM 32.1780 34.5780 125° Southeast 272 313 5,600 -714 Level FlightAware
Sat 10:04:16 AM 32.1590 34.6100 125° Southeast 276 318 5,100 -882 Descending FlightAware
Sat 10:04:34 AM 32.1470 34.6310 124° Southeast 276 318 5,100  Level FlightAware
Sat 10:04:52 AM 32.1330 34.6550 125° Southeast 277 319 5,100  Level FlightAware
Sat 10:05:04 AM 32.1260 34.6670 125° Southeast 273 314 5,100  Level FlightAware
Sat 10:05:26 AM 32.1120 34.6900 126° Southeast 259 298 5,100  Level FlightAware
Sat 10:05:44 AM 32.0970 34.7160 124° Southeast 250 288 5,100  Level FlightAware
Sat 10:06:03 AM 32.0850 34.7360 125° Southeast 238 274 5,100  Level FlightAware
Sat 10:06:21 AM 32.0750 34.7520 126° Southeast 236 272 5,100  Level FlightAware
Sat 10:06:45 AM 32.0570 34.7780 129° Southeast 236 272 5,100 -250 Level FlightAware
Sat 10:07:09 AM 32.0380 34.8000 136° Southeast 228 262 4,900 -429 Descending FlightAware
Sat 10:07:27 AM 32.0250 34.8150 136° Southeast 209 241 4,800 -375 Descending FlightAware
Sat 10:07:57 AM 32.0050 34.8380 136° Southeast 202 232 4,600 -600 Descending FlightAware
Sat 10:08:07 AM 31.9980 34.8460 136° Southeast 202 232 4,400 -1,167 Descending FlightAware
Sat 10:08:33 AM 31.9830 34.8620 138° Southeast 198 228 3,900 -1,333 Descending FlightAware
Sat 10:08:52 AM 31.9730 34.8810 122° Southeast 196 226 3,400 -1,440 Descending FlightAware
Sat 10:08:58 AM 31.9720 34.8870 101° East 193 222 3,300 -1,154 Descending FlightAware
Sat 10:09:18 AM 31.9760 34.9090 78° East 179 206 2,900 -1,000 Descending FlightAware
Sat 10:09:46 AM 31.9820 34.9330 74° East 177 204 2,500 -913 Descending FlightAware
Sat 10:10:04 AM 31.9860 34.9500 74° East 176 203 2,200 -409 Descending FlightAware
Sat 10:10:30 AM 31.9910 34.9710 74° East 176 203 2,200 -824 Level FlightAware
Sat 10:12:15 AM 32.0190 34.9000 295° West 147 169 400 -1,029 Descending FlightAware
Sat 10:12:35 AM 32.0160 34.8840 258° West 135 155 -1,200 Descending FlightAware

Login

Don't have an account? Register now (free) for customized features, flight alerts, and more!